Time;durP1;ratioP1;P1;durP2;ratioP2;P2;SDS_P1;SDS_P2;PMS_P1;PMS_P2;Temp;Humidity;BMP_temperature;BMP_pressure;BME280_temperature;BME280_humidity;BME280_pressure;Samples;Min_cycle;Max_cycle;Signal;HPM_P1;HPM_P2
2022/04/05 00:02:29;;;;;;;9.85;0.75;;;7.30;99.90;;;;;;4850844;28;20418;-68
2022/04/05 00:05:25;;;;;;;5.55;0.90;;;7.30;99.90;;;;;;4944166;28;20068;-68
2022/04/05 00:08:19;;;;;;;;;;;;;;;;;;;;;
2022/04/05 00:10:51;;;;;;;6.50;1.13;;;7.20;99.90;;;;;;5003194;28;20053;-68
2022/04/05 00:13:38;;;;;;;2.22;0.50;;;7.20;99.90;;;;;;5024976;28;20044;-68
2022/04/05 00:16:07;;;;;;;3.58;0.90;;;7.20;99.90;;;;;;4965628;28;20059;-68
2022/04/05 00:18:37;;;;;;;2.90;1.08;;;7.20;99.90;;;;;;5051956;28;20047;-68
2022/04/05 00:21:06;;;;;;;6.05;0.85;;;7.20;99.90;;;;;;5051247;28;20067;-68
2022/04/05 00:23:33;;;;;;;5.72;0.90;;;7.20;99.90;;;;;;5024570;28;20040;-68
2022/04/05 00:26:31;;;;;;;4.72;0.68;;;7.20;99.90;;;;;;5046132;28;20047;-68
2022/04/05 00:29:22;;;;;;;7.22;1.05;;;7.20;99.90;;;;;;4880970;28;20264;-68
2022/04/05 00:32:20;;;;;;;4.90;0.82;;;7.20;99.90;;;;;;5031255;28;20519;-71
2022/04/05 00:34:57;;;;;;;4.75;1.00;;;7.10;99.90;;;;;;4987666;28;20140;-67
2022/04/05 00:37:27;;;;;;;4.93;0.63;;;7.20;99.90;;;;;;4997326;28;20066;-70
2022/04/05 00:39:54;;;;;;;8.98;0.90;;;7.10;99.90;;;;;;5032419;28;20037;-70
2022/04/05 00:45:40;;;;;;;5.80;1.27;;;7.10;99.90;;;;;;4967450;28;20040;-68
2022/04/05 00:48:21;;;;;;;5.70;1.70;;;7.10;99.90;;;;;;5048537;28;20122;-67
2022/04/05 00:51:23;;;;;;;4.63;0.98;;;7.10;99.90;;;;;;4905436;28;20440;-67
2022/04/05 00:53:57;;;;;;;6.57;1.15;;;7.10;99.90;;;;;;4866332;28;20076;-67
2022/04/05 00:56:44;;;;;;;5.55;1.73;;;7.10;99.90;;;;;;5043159;28;20194;-67
2022/04/05 00:59:12;;;;;;;9.07;1.15;;;7.10;99.90;;;;;;5050792;28;20052;-67
2022/04/05 01:01:39;;;;;;;7.60;2.53;;;7.10;99.90;;;;;;5060557;28;20111;-67
2022/04/05 01:04:07;;;;;;;6.78;1.45;;;7.10;99.90;;;;;;5033567;28;20435;-67
2022/04/05 01:10:43;;;;;;;7.70;1.23;;;7.10;99.90;;;;;;4935703;28;20536;-67
2022/04/05 01:13:21;;;;;;;6.15;0.98;;;7.10;99.90;;;;;;4928538;28;20318;-67
2022/04/05 01:16:03;;;;;;;7.22;0.93;;;7.10;99.90;;;;;;4937813;28;20451;-67
2022/04/05 01:18:33;;;;;;;4.78;1.00;;;7.10;99.90;;;;;;4918032;28;21066;-67
2022/04/05 01:21:02;;;;;;;5.20;1.13;;;7.10;99.90;;;;;;5017346;28;20551;-67
2022/04/05 01:23:28;;;;;;;7.97;1.33;;;7.10;99.90;;;;;;5059375;28;20029;-67
2022/04/05 01:25:55;;;;;;;6.23;1.30;;;7.10;99.90;;;;;;5049317;28;20033;-70
2022/04/05 01:28:20;;;;;;;;;;;7.10;99.90;;;;;;5016042;28;20063;-67
2022/04/05 01:30:46;;;;;;;4.30;0.80;;;7.10;99.90;;;;;;5039734;28;20380;-67
2022/04/05 01:33:11;;;;;;;6.70;0.87;;;7.10;99.90;;;;;;5055982;28;20472;-68
2022/04/05 01:35:39;;;;;;;7.30;1.40;;;7.10;99.90;;;;;;5054791;28;20456;-67
2022/04/05 01:38:06;;;;;;;4.47;0.90;;;7.10;99.90;;;;;;5033558;28;20512;-67
2022/04/05 01:40:32;;;;;;;8.35;1.23;;;7.10;99.90;;;;;;5050766;28;20110;-68
2022/04/05 01:42:58;;;;;;;3.90;0.90;;;7.10;99.90;;;;;;5056280;28;20040;-67
2022/04/05 01:45:27;;;;;;;9.10;0.80;;;7.10;99.90;;;;;;5031023;28;20037;-67
2022/04/05 01:47:52;;;;;;;7.25;1.58;;;7.10;99.90;;;;;;5023872;28;20052;-67
2022/04/05 01:50:18;;;;;;;8.30;1.30;;;7.10;99.90;;;;;;5049768;28;20036;-67
2022/04/05 01:52:43;;;;;;;5.57;1.40;;;7.20;99.90;;;;;;5051942;28;20093;-67
2022/04/05 01:55:10;;;;;;;7.33;1.17;;;7.10;99.90;;;;;;5032591;28;20131;-67
2022/04/05 01:57:35;;;;;;;5.88;1.23;;;7.20;99.90;;;;;;5037507;28;20040;-67
2022/04/05 02:00:03;;;;;;;8.77;1.00;;;7.10;99.90;;;;;;5049159;28;20044;-67
2022/04/05 02:02:28;;;;;;;5.82;1.27;;;7.20;99.90;;;;;;5047684;28;20373;-67
2022/04/05 02:04:54;;;;;;;8.00;1.73;;;7.20;99.90;;;;;;5052965;28;20101;-68
2022/04/05 02:07:20;;;;;;;7.30;1.40;;;7.10;99.90;;;;;;5048928;28;20446;-67
2022/04/05 02:09:48;;;;;;;9.45;1.40;;;7.20;99.90;;;;;;5055318;28;20040;-67
2022/04/05 02:12:16;;;;;;;7.65;1.98;;;7.20;99.90;;;;;;5035483;28;20072;-67
2022/04/05 02:14:42;;;;;;;7.22;1.90;;;7.20;99.90;;;;;;5054122;28;20466;-67
2022/04/05 02:17:08;;;;;;;13.27;1.70;;;7.20;99.90;;;;;;5053622;28;20041;-67
2022/04/05 02:19:34;;;;;;;10.10;1.48;;;7.20;99.90;;;;;;5057802;28;20385;-67
2022/04/05 02:22:00;;;;;;;8.50;1.58;;;7.20;99.90;;;;;;5054834;28;20514;-67
2022/04/05 02:24:26;;;;;;;9.85;1.27;;;7.20;99.90;;;;;;5057333;28;20457;-67
2022/04/05 02:26:52;;;;;;;8.60;1.80;;;7.20;99.90;;;;;;5033332;28;20041;-67
2022/04/05 02:29:17;;;;;;;12.53;2.40;;;7.20;99.90;;;;;;5055927;28;20135;-67
2022/04/05 02:31:43;;;;;;;18.87;1.53;;;7.20;99.90;;;;;;5052030;28;20463;-68
2022/04/05 02:34:09;;;;;;;6.00;1.17;;;7.20;99.90;;;;;;5040492;28;20044;-67
2022/04/05 02:36:35;;;;;;;;;;;7.20;99.90;;;;;;5052065;28;20143;-67
2022/04/05 02:39:01;;;;;;;11.93;2.03;;;7.20;99.90;;;;;;5053961;28;19967;-68
2022/04/05 02:41:30;;;;;;;7.18;1.30;;;7.20;99.90;;;;;;5049409;28;20040;-67
2022/04/05 02:43:56;;;;;;;9.83;1.63;;;7.20;99.90;;;;;;5050776;28;20572;-67
2022/04/05 02:46:21;;;;;;;8.52;1.63;;;7.30;99.90;;;;;;5057588;28;20071;-67
2022/04/05 02:48:48;;;;;;;10.63;1.77;;;7.20;99.90;;;;;;5058917;28;20048;-67
2022/04/05 02:51:15;;;;;;;13.40;1.50;;;7.20;99.90;;;;;;5051892;28;20190;-67
2022/04/05 02:53:42;;;;;;;11.27;1.42;;;7.20;99.90;;;;;;5035218;28;20045;-67
2022/04/05 02:56:08;;;;;;;4.60;1.13;;;7.20;99.90;;;;;;5054544;28;20044;-67
2022/04/05 02:58:35;;;;;;;10.32;1.73;;;7.20;99.90;;;;;;5051914;28;20045;-67
2022/04/05 03:01:01;;;;;;;6.45;1.52;;;7.30;99.90;;;;;;5035095;28;20064;-67
2022/04/05 03:03:26;;;;;;;6.83;1.10;;;7.20;99.90;;;;;;5031666;28;20036;-67
2022/04/05 03:05:52;;;;;;;5.67;1.20;;;7.20;99.90;;;;;;5056712;28;20128;-67
2022/04/05 03:08:17;;;;;;;6.87;1.27;;;7.20;99.90;;;;;;5056707;28;20044;-67
2022/04/05 03:10:43;;;;;;;5.83;1.27;;;7.20;99.90;;;;;;5061327;28;20040;-67
2022/04/05 03:13:08;;;;;;;15.70;1.60;;;7.20;99.90;;;;;;5058933;28;20508;-67
2022/04/05 03:15:34;;;;;;;7.93;1.20;;;7.20;99.90;;;;;;5053059;28;20063;-67
2022/04/05 03:18:02;;;;;;;9.57;1.98;;;7.30;99.90;;;;;;5056321;28;20489;-67
2022/04/05 03:20:28;;;;;;;9.67;1.33;;;7.20;99.90;;;;;;5052732;28;20047;-68
2022/04/05 03:22:55;;;;;;;8.67;2.63;;;7.20;99.90;;;;;;5030545;28;20069;-67
2022/04/05 03:25:22;;;;;;;8.30;1.10;;;7.20;99.90;;;;;;5051750;28;20045;-67
2022/04/05 03:27:48;;;;;;;9.63;1.75;;;7.20;99.90;;;;;;5042371;28;20063;-67
2022/04/05 03:30:16;;;;;;;12.82;1.40;;;7.20;99.90;;;;;;5055718;28;20170;-67
2022/04/05 03:32:42;;;;;;;6.60;1.35;;;7.20;99.90;;;;;;5055955;28;20079;-68
2022/04/05 03:35:08;;;;;;;5.40;1.40;;;7.20;99.90;;;;;;5045636;28;20145;-68
2022/04/05 03:37:34;;;;;;;;;;;7.20;99.90;;;;;;5056498;28;20050;-67
2022/04/05 03:39:59;;;;;;;7.65;1.30;;;7.20;99.90;;;;;;5055765;28;19924;-67
2022/04/05 03:42:28;;;;;;;3.78;1.13;;;7.20;99.90;;;;;;5064548;28;20571;-67
2022/04/05 03:44:53;;;;;;;6.67;1.27;;;7.20;99.90;;;;;;5064356;28;20302;-68
2022/04/05 03:47:19;;;;;;;9.13;1.20;;;7.20;99.90;;;;;;5033711;28;20084;-68
2022/04/05 03:49:45;;;;;;;13.80;2.80;;;7.20;99.90;;;;;;5058912;28;20045;-68
2022/04/05 03:52:10;;;;;;;9.67;1.50;;;7.20;99.90;;;;;;5059175;28;20257;-67
2022/04/05 03:54:36;;;;;;;4.37;1.13;;;7.20;99.90;;;;;;5053743;28;20052;-67
2022/04/05 03:57:02;;;;;;;9.67;1.63;;;7.20;99.90;;;;;;5061569;28;20046;-67
2022/04/05 03:59:27;;;;;;;9.13;1.70;;;7.20;99.90;;;;;;5059980;28;20055;-67
2022/04/05 04:01:53;;;;;;;8.57;1.23;;;7.20;99.90;;;;;;5032262;28;20311;-67
2022/04/05 04:04:18;;;;;;;8.53;1.17;;;7.20;99.90;;;;;;5059021;28;20439;-67
2022/04/05 04:06:44;;;;;;;10.43;3.13;;;7.20;99.90;;;;;;5061679;28;20071;-67
2022/04/05 04:09:11;;;;;;;7.40;0.90;;;7.20;99.90;;;;;;5054489;28;20032;-67
2022/04/05 04:11:40;;;;;;;10.00;1.20;;;7.20;99.90;;;;;;5064103;28;20534;-67
2022/04/05 04:14:07;;;;;;;7.85;1.08;;;7.20;99.90;;;;;;5059001;28;20507;-68
2022/04/05 04:16:33;;;;;;;6.82;1.33;;;7.20;99.90;;;;;;5038748;28;20049;-68
2022/04/05 04:18:59;;;;;;;7.53;1.52;;;7.10;99.90;;;;;;5061668;28;20416;-68
2022/04/05 04:21:25;;;;;;;7.82;1.65;;;7.20;99.90;;;;;;5053777;28;20037;-67
2022/04/05 04:23:51;;;;;;;7.87;1.43;;;7.20;99.90;;;;;;5051599;28;20036;-67
2022/04/05 04:26:16;;;;;;;9.00;1.63;;;7.20;99.90;;;;;;5057157;28;20045;-67
2022/04/05 04:28:42;;;;;;;7.27;1.60;;;7.10;99.90;;;;;;5017899;28;20037;-67
2022/04/05 04:31:07;;;;;;;15.77;2.13;;;7.10;99.90;;;;;;5018077;28;20045;-67
2022/04/05 04:33:33;;;;;;;5.47;1.00;;;7.10;99.90;;;;;;5054984;28;20124;-68
2022/04/05 04:35:59;;;;;;;5.70;1.37;;;7.10;99.90;;;;;;5044669;28;20395;-68
2022/04/05 04:38:25;;;;;;;7.00;1.38;;;7.10;99.90;;;;;;5057967;28;20683;-68
2022/04/05 04:40:50;;;;;;;12.45;1.60;;;7.10;99.90;;;;;;5052246;28;20041;-68
2022/04/05 04:43:17;;;;;;;3.13;1.37;;;7.10;99.90;;;;;;5038252;28;20049;-68
2022/04/05 04:45:43;;;;;;;;;;;7.10;99.90;;;;;;5053762;28;20083;-68
2022/04/05 04:48:09;;;;;;;5.88;1.67;;;7.10;99.90;;;;;;5029285;28;20315;-68
2022/04/05 04:50:34;;;;;;;5.67;2.00;;;7.10;99.90;;;;;;5060104;28;20032;-68
2022/04/05 04:53:00;;;;;;;8.93;1.53;;;7.10;99.90;;;;;;5056677;28;20037;-68
2022/04/05 04:55:27;;;;;;;9.70;2.20;;;7.10;99.90;;;;;;5056666;28;20701;-68
2022/04/05 04:57:56;;;;;;;4.40;1.38;;;7.10;99.90;;;;;;5061259;28;20119;-68
2022/04/05 05:00:21;;;;;;;6.35;1.60;;;7.10;99.90;;;;;;5034098;28;20041;-68
2022/04/05 05:02:48;;;;;;;9.40;2.03;;;7.10;99.90;;;;;;5041230;28;20037;-68
2022/04/05 05:05:20;;;;;;;8.13;1.45;;;7.10;99.90;;;;;;5054095;28;20303;-68
2022/04/05 05:07:51;;;;;;;8.57;1.52;;;7.10;99.90;;;;;;5059838;28;20461;-68
2022/04/05 05:10:19;;;;;;;8.50;1.73;;;7.10;99.90;;;;;;5057026;28;20100;-68
2022/04/05 05:12:45;;;;;;;8.88;1.40;;;7.10;99.90;;;;;;5038405;28;20083;-68
2022/04/05 05:15:17;;;;;;;10.30;1.90;;;7.00;99.90;;;;;;5059649;28;20136;-68
2022/04/05 05:17:43;;;;;;;9.75;1.73;;;7.00;99.90;;;;;;5053521;28;20032;-68
2022/04/05 05:20:09;;;;;;;8.38;1.83;;;7.00;99.90;;;;;;5055130;28;21789;-68
2022/04/05 05:22:35;;;;;;;9.10;1.42;;;7.00;99.90;;;;;;5046999;28;20596;-68
2022/04/05 05:25:01;;;;;;;6.67;1.40;;;7.00;99.90;;;;;;5042947;28;20124;-68
2022/04/05 05:27:28;;;;;;;9.60;1.55;;;7.00;99.90;;;;;;5028758;28;20140;-68
2022/04/05 05:29:54;;;;;;;9.60;1.15;;;7.00;99.90;;;;;;5047419;28;20580;-68
2022/04/05 05:32:20;;;;;;;8.77;1.90;;;7.00;99.90;;;;;;5052498;28;20124;-68
2022/04/05 05:34:45;;;;;;;7.35;1.70;;;7.00;99.90;;;;;;5040539;28;20123;-68
2022/04/05 05:37:11;;;;;;;11.43;1.50;;;7.00;99.90;;;;;;5053094;28;20091;-68
2022/04/05 05:39:37;;;;;;;7.95;2.03;;;7.00;99.90;;;;;;5060753;28;20032;-72
2022/04/05 05:42:04;;;;;;;7.73;2.03;;;7.00;99.90;;;;;;5028858;28;20359;-68
2022/04/05 05:44:31;;;;;;;5.88;1.20;;;7.00;99.90;;;;;;5049539;28;20041;-68
2022/04/05 05:46:56;;;;;;;;;;;7.00;99.90;;;;;;5050012;28;20119;-68
2022/04/05 05:49:22;;;;;;;7.25;1.45;;;7.00;99.90;;;;;;5049084;28;19924;-69
2022/04/05 05:51:48;;;;;;;3.72;1.30;;;7.00;99.90;;;;;;5035622;28;20126;-69
2022/04/05 05:54:13;;;;;;;9.93;1.33;;;7.00;99.90;;;;;;5061069;22;20047;-72
2022/04/05 05:56:39;;;;;;;6.43;1.30;;;7.00;99.90;;;;;;5039034;28;20489;-72
2022/04/05 05:59:05;;;;;;;7.13;1.47;;;7.00;99.90;;;;;;5017236;28;20051;-72
2022/04/05 06:01:30;;;;;;;11.80;1.73;;;7.00;99.90;;;;;;5012745;28;20072;-72
2022/04/05 06:03:56;;;;;;;12.37;2.53;;;7.10;99.90;;;;;;5025767;28;20287;-72
2022/04/05 06:06:24;;;;;;;10.93;2.07;;;7.10;99.90;;;;;;5019323;28;20041;-72
2022/04/05 06:08:50;;;;;;;8.13;1.67;;;7.10;99.90;;;;;;5021956;28;20339;-72
2022/04/05 06:11:16;;;;;;;8.57;1.50;;;7.10;99.90;;;;;;5041627;28;20527;-72
2022/04/05 06:13:41;;;;;;;6.57;1.50;;;7.10;99.90;;;;;;5040578;28;20469;-72
2022/04/05 06:16:08;;;;;;;4.83;1.50;;;7.10;99.90;;;;;;5019419;28;20125;-72
2022/04/05 06:18:34;;;;;;;8.23;2.30;;;7.10;99.90;;;;;;5034496;28;20048;-72
2022/04/05 06:21:00;;;;;;;9.70;1.80;;;7.10;99.90;;;;;;5036665;28;20037;-72
2022/04/05 06:23:26;;;;;;;14.20;2.27;;;7.20;99.90;;;;;;5026269;28;20047;-72
2022/04/05 06:25:51;;;;;;;11.93;2.20;;;7.20;99.90;;;;;;5040424;28;20091;-72
2022/04/05 06:28:18;;;;;;;7.87;2.70;;;7.20;99.90;;;;;;5015086;28;20042;-72
2022/04/05 06:30:47;;;;;;;6.20;1.88;;;7.20;99.90;;;;;;5029213;28;20029;-72
2022/04/05 06:33:15;;;;;;;11.00;2.42;;;7.30;99.90;;;;;;5021816;28;20045;-72
2022/04/05 06:35:46;;;;;;;12.38;2.10;;;7.30;99.90;;;;;;5015522;28;20045;-72
2022/04/05 06:38:12;;;;;;;10.40;2.40;;;7.30;99.90;;;;;;5019378;28;20373;-72
2022/04/05 06:40:38;;;;;;;8.43;1.98;;;7.30;99.90;;;;;;5015531;28;20517;-72
2022/04/05 06:43:04;;;;;;;9.10;2.40;;;7.30;99.90;;;;;;5024384;28;20041;-72
2022/04/05 06:45:30;;;;;;;11.95;2.08;;;7.40;99.90;;;;;;5019985;28;20056;-72
2022/04/05 06:47:56;;;;;;;3.75;1.65;;;7.40;99.90;;;;;;5008587;28;20043;-72
2022/04/05 06:50:25;;;;;;;7.82;1.92;;;7.40;99.90;;;;;;5034092;28;20032;-72
2022/04/05 06:52:59;;;;;;;12.35;2.00;;;7.50;99.90;;;;;;5036422;28;20051;-72
2022/04/05 06:55:25;;;;;;;8.23;1.70;;;7.50;99.90;;;;;;5039166;28;20497;-72
2022/04/05 06:57:52;;;;;;;4.53;1.60;;;7.50;99.90;;;;;;5036321;28;20057;-72
2022/04/05 07:00:19;;;;;;;5.80;1.40;;;7.60;99.90;;;;;;5012754;28;20127;-72
2022/04/05 07:02:45;;;;;;;8.20;1.92;;;7.60;99.90;;;;;;5015475;28;20062;-72
2022/04/05 07:05:12;;;;;;;5.67;1.77;;;7.60;99.90;;;;;;5012457;28;20502;-72
2022/04/05 07:07:39;;;;;;;6.75;1.30;;;7.60;99.90;;;;;;5014195;28;20037;-72
2022/04/05 07:10:05;;;;;;;;;;;7.60;99.90;;;;;;5014356;28;20045;-72
2022/04/05 07:12:35;;;;;;;12.35;2.15;;;7.70;99.90;;;;;;5039800;28;19947;-72
2022/04/05 07:15:01;;;;;;;8.68;1.52;;;7.60;99.90;;;;;;5022868;28;20041;-72
2022/04/05 07:17:27;;;;;;;5.68;1.30;;;7.70;99.90;;;;;;5019011;28;20048;-72
2022/04/05 07:19:53;;;;;;;7.97;1.77;;;7.70;99.90;;;;;;5016538;28;20505;-72
2022/04/05 07:22:19;;;;;;;4.28;1.13;;;7.70;99.90;;;;;;5015950;28;20503;-72
2022/04/05 07:24:46;;;;;;;6.80;1.50;;;7.80;99.90;;;;;;5015575;28;20124;-71
2022/04/05 07:27:12;;;;;;;9.75;1.70;;;7.70;99.90;;;;;;5016626;28;20355;-72
2022/04/05 07:29:39;;;;;;;5.53;1.00;;;7.70;99.90;;;;;;5002909;28;20116;-71
2022/04/05 07:32:05;;;;;;;6.35;1.40;;;7.70;99.90;;;;;;5017428;28;20516;-72
2022/04/05 07:34:30;;;;;;;4.85;1.50;;;7.70;99.90;;;;;;5026289;28;20051;-73
2022/04/05 07:36:56;;;;;;;6.00;1.77;;;7.70;99.90;;;;;;5041383;28;20037;-72
2022/04/05 07:39:23;;;;;;;6.40;1.50;;;7.70;99.90;;;;;;5024516;28;20517;-72
2022/04/05 07:41:49;;;;;;;;;;;7.70;99.90;;;;;;5038992;28;20400;-72
2022/04/05 07:44:15;;;;;;;4.57;2.20;;;7.70;99.90;;;;;;5041862;28;19916;-72
2022/04/05 07:46:41;;;;;;;5.97;1.17;;;7.80;99.90;;;;;;5043753;28;20038;-72
2022/04/05 07:49:06;;;;;;;7.20;1.20;;;7.80;99.90;;;;;;5026127;28;20443;-72
2022/04/05 07:51:32;;;;;;;4.87;1.17;;;7.80;99.90;;;;;;5035470;28;20037;-72
2022/04/05 07:53:58;;;;;;;4.90;1.40;;;7.80;99.90;;;;;;5027361;28;20045;-72
2022/04/05 07:56:23;;;;;;;4.80;2.20;;;7.90;99.90;;;;;;5026725;28;20485;-72
2022/04/05 07:58:49;;;;;;;6.10;1.63;;;8.00;99.90;;;;;;5023392;28;20033;-72
2022/04/05 08:01:14;;;;;;;7.93;1.37;;;8.00;99.90;;;;;;5027959;28;20119;-72
2022/04/05 08:03:40;;;;;;;4.67;1.50;;;8.00;99.90;;;;;;5023609;28;20102;-72
2022/04/05 08:06:06;;;;;;;7.77;1.83;;;8.00;99.90;;;;;;5023297;28;20068;-72
2022/04/05 08:08:32;;;;;;;4.18;1.13;;;8.00;99.90;;;;;;5043652;28;20519;-72
2022/04/05 08:10:58;;;;;;;6.67;1.50;;;8.00;99.90;;;;;;5027918;28;20068;-72
2022/04/05 08:13:26;;;;;;;3.03;1.17;;;8.10;99.90;;;;;;5025873;28;20393;-72
2022/04/05 08:15:52;;;;;;;4.97;1.10;;;8.10;99.90;;;;;;5023138;28;20399;-72
2022/04/05 08:18:19;;;;;;;3.38;1.10;;;8.10;99.90;;;;;;5038742;28;20337;-72
2022/04/05 08:20:44;;;;;;;;;;;8.10;99.90;;;;;;5045507;28;20072;-72
2022/04/05 08:23:10;;;;;;;2.75;1.02;;;8.10;99.90;;;;;;5027105;28;19971;-72
2022/04/05 08:25:36;;;;;;;6.68;1.10;;;8.20;99.90;;;;;;5043390;28;20345;-72
2022/04/05 08:28:03;;;;;;;4.60;1.15;;;8.20;99.90;;;;;;5021695;28;20076;-72
2022/04/05 08:30:28;;;;;;;5.82;0.90;;;8.20;99.90;;;;;;5008368;28;20164;-72
2022/04/05 08:32:54;;;;;;;3.63;0.90;;;8.20;99.90;;;;;;5037821;28;20057;-72
2022/04/05 08:35:21;;;;;;;3.17;1.00;;;8.20;99.90;;;;;;5008084;28;20407;-72
2022/04/05 08:37:48;;;;;;;4.68;1.30;;;8.20;99.90;;;;;;5024532;28;20043;-72
2022/04/05 08:40:16;;;;;;;2.97;0.73;;;8.20;99.90;;;;;;5035221;28;20045;-72
2022/04/05 08:42:47;;;;;;;3.15;1.27;;;8.30;99.90;;;;;;5042982;28;20082;-71
2022/04/05 08:45:14;;;;;;;6.35;1.20;;;8.30;99.90;;;;;;5026222;28;20095;-71
2022/04/05 08:47:46;;;;;;;4.70;0.90;;;8.40;99.90;;;;;;5031043;28;20041;-71
2022/04/05 08:50:17;;;;;;;3.83;0.95;;;8.40;99.90;;;;;;5045736;28;20526;-71
2022/04/05 08:52:45;;;;;;;5.72;0.93;;;8.40;99.90;;;;;;5033688;28;20531;-72
2022/04/05 08:55:11;;;;;;;4.43;1.15;;;8.50;99.90;;;;;;5020053;28;20056;-71
2022/04/05 08:57:37;;;;;;;;;;;8.40;99.90;;;;;;5041607;28;20051;-71
2022/04/05 09:00:07;;;;;;;4.15;0.93;;;8.50;99.90;;;;;;5039485;28;19921;-71
2022/04/05 09:02:32;;;;;;;1.88;0.90;;;8.50;99.90;;;;;;5017746;28;20041;-71
2022/04/05 09:04:58;;;;;;;2.80;0.80;;;8.50;99.90;;;;;;5029320;28;20052;-71
2022/04/05 09:07:28;;;;;;;3.77;1.43;;;8.50;99.90;;;;;;5042789;28;20238;-71
2022/04/05 09:10:15;;;;;;;4.72;1.65;;;8.60;99.90;;;;;;5026478;28;20116;-71
2022/04/05 09:12:47;;;;;;;3.80;1.40;;;8.60;99.90;;;;;;5040048;28;20041;-71
2022/04/05 09:15:18;;;;;;;3.28;1.05;;;8.60;99.90;;;;;;5026555;28;20124;-71
2022/04/05 09:17:46;;;;;;;3.60;0.80;;;8.70;99.90;;;;;;5028812;28;20493;-71
2022/04/05 09:20:13;;;;;;;1.45;0.93;;;8.70;99.90;;;;;;5008952;28;20124;-71
2022/04/05 09:22:40;;;;;;;4.57;2.03;;;8.70;99.90;;;;;;5026794;28;20516;-71
2022/04/05 09:25:07;;;;;;;8.45;3.90;;;8.70;99.90;;;;;;5034312;28;20037;-71
2022/04/05 09:27:53;;;;;;;2.00;1.10;;;8.70;99.90;;;;;;5041455;28;23005;-71
2022/04/05 09:30:27;;;;;;;2.17;0.95;;;8.70;99.90;;;;;;5040709;28;20521;-71
2022/04/05 09:32:54;;;;;;;2.20;0.70;;;8.80;99.90;;;;;;5022537;28;20459;-71
2022/04/05 09:35:26;;;;;;;3.45;0.85;;;8.80;99.90;;;;;;5043389;28;20052;-71
2022/04/05 09:37:52;;;;;;;6.03;0.80;;;8.80;99.90;;;;;;5022135;28;20053;-71
2022/04/05 09:40:34;;;;;;;3.87;0.77;;;8.80;99.90;;;;;;5025131;28;20489;-71
2022/04/05 09:43:13;;;;;;;4.22;0.70;;;8.80;99.90;;;;;;5017160;28;20497;-71
2022/04/05 09:45:44;;;;;;;3.47;1.00;;;8.90;99.90;;;;;;5037288;28;20037;-71
2022/04/05 09:48:10;;;;;;;4.18;0.70;;;8.90;99.90;;;;;;5044439;28;20128;-71
2022/04/05 09:51:11;;;;;;;0.90;0.47;;;8.80;99.90;;;;;;5023421;28;20165;-71
2022/04/05 09:53:40;;;;;;;1.05;0.47;;;8.80;99.90;;;;;;4946265;28;20334;-71
2022/04/05 09:56:08;;;;;;;1.73;0.70;;;8.80;99.90;;;;;;5004575;28;20456;-71
2022/04/05 09:58:35;;;;;;;1.85;0.50;;;8.90;99.90;;;;;;5017664;28;20041;-71
2022/04/05 10:01:07;;;;;;;1.50;0.70;;;8.80;99.90;;;;;;5032841;28;20033;-71
2022/04/05 10:03:34;;;;;;;1.85;0.70;;;8.80;99.90;;;;;;5035741;28;20041;-71
2022/04/05 10:06:02;;;;;;;2.00;0.77;;;8.90;99.90;;;;;;5021304;28;20440;-71
2022/04/05 10:08:33;;;;;;;1.52;0.70;;;8.90;99.90;;;;;;5040151;28;20472;-71
2022/04/05 10:10:59;;;;;;;1.15;0.70;;;8.90;99.90;;;;;;5021478;28;20041;-71
2022/04/05 10:13:26;;;;;;;2.42;0.95;;;8.90;99.90;;;;;;5036103;28;20052;-71
2022/04/05 10:15:53;;;;;;;3.90;1.08;;;8.90;99.90;;;;;;5037463;28;20036;-71
2022/04/05 10:18:20;;;;;;;2.13;1.15;;;9.00;99.90;;;;;;5019358;28;20085;-71
2022/04/05 10:20:50;;;;;;;1.73;0.88;;;9.00;99.90;;;;;;5040549;28;20033;-71
2022/04/05 10:23:19;;;;;;;3.80;1.08;;;9.10;99.90;;;;;;5039296;28;20501;-71
2022/04/05 10:25:48;;;;;;;1.98;0.75;;;9.10;99.90;;;;;;5039413;28;20440;-71
2022/04/05 10:28:16;;;;;;;1.27;0.70;;;9.20;99.90;;;;;;5018516;28;20041;-71
2022/04/05 10:30:47;;;;;;;1.92;0.73;;;9.20;99.90;;;;;;5011111;28;20048;-71
2022/04/05 10:33:26;;;;;;;4.40;0.85;;;9.20;99.90;;;;;;5040067;28;20045;-71
2022/04/05 10:36:00;;;;;;;4.43;1.23;;;9.30;99.90;;;;;;5019986;28;20045;-71
2022/04/05 10:38:27;;;;;;;1.98;1.17;;;9.40;99.90;;;;;;5018078;28;20069;-71
2022/04/05 10:41:19;;;;;;;1.30;0.80;;;9.40;99.90;;;;;;5044143;28;20036;-71
2022/04/05 10:43:49;;;;;;;1.73;0.70;;;9.60;99.90;;;;;;5038075;28;20047;-71
2022/04/05 10:46:38;;;;;;;1.67;0.82;;;9.70;99.90;;;;;;5039918;28;20060;-71
2022/04/05 10:49:07;;;;;;;2.60;1.08;;;10.00;99.90;;;;;;5024792;28;20561;-71
2022/04/05 10:52:12;;;;;;;2.28;1.10;;;10.10;99.90;;;;;;5023379;28;20123;-71
2022/04/05 10:54:46;;;;;;;3.42;1.38;;;10.30;99.90;;;;;;5018030;28;20043;-71
2022/04/05 10:57:35;;;;;;;3.17;1.52;;;10.30;99.90;;;;;;5021904;28;20047;-71
2022/04/05 11:00:21;;;;;;;2.47;1.40;;;10.40;99.90;;;;;;5011715;28;20045;-71
2022/04/05 11:02:53;;;;;;;2.20;1.13;;;10.40;99.90;;;;;;5026885;28;20033;-71
2022/04/05 11:05:21;;;;;;;3.10;1.42;;;10.40;99.90;;;;;;5017779;28;20048;-71
2022/04/05 11:07:59;;;;;;;1.95;1.20;;;10.40;99.90;;;;;;5017260;28;20045;-71
2022/04/05 11:10:31;;;;;;;2.10;1.27;;;10.50;99.90;;;;;;5018318;28;20050;-71
2022/04/05 11:13:09;;;;;;;1.90;1.20;;;10.60;99.90;;;;;;5036951;28;20079;-71
2022/04/05 11:15:53;;;;;;;2.33;1.20;;;10.70;99.90;;;;;;5042041;28;20494;-71
2022/04/05 11:18:24;;;;;;;2.67;1.42;;;10.70;99.90;;;;;;5018319;28;20056;-72
2022/04/05 11:20:54;;;;;;;2.95;1.50;;;10.70;99.90;;;;;;4999048;28;20087;-71
2022/04/05 11:23:36;;;;;;;2.88;1.52;;;10.70;99.90;;;;;;5013158;28;20063;-72
2022/04/05 11:26:33;;;;;;;2.67;1.48;;;10.80;99.90;;;;;;5027812;28;20049;-71
2022/04/05 11:29:00;;;;;;;3.67;1.73;;;10.80;99.90;;;;;;5029846;28;20493;-71
2022/04/05 11:31:35;;;;;;;3.72;1.77;;;10.80;99.90;;;;;;5026811;28;20174;-71
2022/04/05 11:34:03;;;;;;;3.80;1.90;;;10.80;99.90;;;;;;5016881;28;20037;-71
2022/04/05 11:36:28;;;;;;;3.45;1.92;;;10.90;99.90;;;;;;5036045;28;20033;-72
2022/04/05 11:38:58;;;;;;;4.50;2.17;;;10.90;99.90;;;;;;5026107;28;20106;-71
2022/04/05 11:41:25;;;;;;;3.58;2.10;;;10.90;99.90;;;;;;5020190;28;20049;-71
2022/04/05 11:43:56;;;;;;;4.15;2.10;;;10.90;99.90;;;;;;5033932;28;20112;-71
2022/04/05 11:46:27;;;;;;;3.72;2.40;;;10.80;99.90;;;;;;5040968;28;20387;-71
2022/04/05 11:48:58;;;;;;;4.35;2.40;;;10.80;99.90;;;;;;5045831;28;20033;-71
2022/04/05 11:51:36;;;;;;;3.97;2.25;;;10.90;99.90;;;;;;5040227;28;20134;-71
2022/04/05 11:54:11;;;;;;;5.32;3.00;;;11.00;99.90;;;;;;5047081;23;20060;-81
2022/04/05 11:56:44;;;;;;;5.18;3.00;;;11.00;99.90;;;;;;5008077;28;20111;-82
2022/04/05 11:59:16;;;;;;;4.80;2.97;;;11.10;99.90;;;;;;5023070;28;20032;-85
2022/04/05 12:01:43;;;;;;;6.10;2.83;;;11.00;99.90;;;;;;5002713;28;20390;-81
2022/04/05 12:04:11;;;;;;;5.18;3.25;;;11.00;99.90;;;;;;5020346;28;20041;-83
2022/04/05 12:06:40;;;;;;;5.00;2.63;;;11.00;99.90;;;;;;5029981;28;20049;-83
2022/04/05 12:09:10;;;;;;;5.20;2.92;;;11.00;99.90;;;;;;5000404;28;20045;-82
2022/04/05 12:11:37;;;;;;;5.78;3.05;;;11.10;99.90;;;;;;5001112;28;20033;-82
2022/04/05 12:14:09;;;;;;;5.07;2.60;;;11.10;99.90;;;;;;5003894;28;20056;-85
2022/04/05 12:16:58;;;;;;;8.63;3.17;;;11.20;99.90;;;;;;5001912;28;20404;-83
2022/04/05 12:19:32;;;;;;;5.45;3.53;;;11.20;99.90;;;;;;5003696;28;20045;-84
2022/04/05 12:22:02;;;;;;;6.88;3.65;;;11.20;99.90;;;;;;5002807;28;20052;-82
2022/04/05 12:24:30;;;;;;;9.57;3.33;;;11.20;99.90;;;;;;4997089;28;20515;-82
2022/04/05 12:27:00;;;;;;;7.32;3.50;;;11.10;99.90;;;;;;5013626;28;20049;-82
2022/04/05 12:29:33;;;;;;;7.50;2.85;;;11.00;99.90;;;;;;5014711;28;20037;-83
2022/04/05 12:32:10;;;;;;;8.25;3.88;;;11.00;99.90;;;;;;5018722;28;20391;-82
2022/04/05 12:34:36;;;;;;;;;;;10.90;99.90;;;;;;5019671;28;20041;-83
2022/04/05 12:37:03;;;;;;;5.25;2.90;;;10.90;99.90;;;;;;5004201;28;19928;-81
2022/04/05 12:39:34;;;;;;;9.60;3.28;;;10.80;99.90;;;;;;5002879;28;20106;-84
2022/04/05 12:42:06;;;;;;;10.07;3.58;;;10.70;99.90;;;;;;5017015;28;20084;-82
2022/04/05 12:44:37;;;;;;;9.75;4.43;;;10.70;99.90;;;;;;5000217;28;20064;-85
2022/04/05 12:47:15;;;;;;;13.88;6.50;;;10.70;99.90;;;;;;5005660;28;20072;-83
2022/04/05 12:49:42;;;;;;;10.68;3.58;;;10.60;99.90;;;;;;5009692;28;20041;-83
2022/04/05 12:52:14;;;;;;;12.70;4.22;;;10.60;99.90;;;;;;5000049;28;20052;-84
2022/04/05 12:54:53;;;;;;;12.60;4.40;;;10.60;99.90;;;;;;4999722;28;22327;-82
2022/04/05 12:57:34;;;;;;;10.55;4.55;;;10.50;99.90;;;;;;5014429;28;20112;-80
2022/04/05 13:00:20;;;;;;;16.40;5.15;;;10.50;99.90;;;;;;4997204;28;20475;-82
2022/04/05 13:02:56;;;;;;;18.70;5.18;;;10.50;99.90;;;;;;4996918;28;20045;-82
2022/04/05 13:08:29;;;;;;;14.73;4.50;;;10.40;99.90;;;;;;5036307;28;20056;-84
2022/04/05 13:10:57;;;;;;;15.20;4.53;;;10.30;99.90;;;;;;5015884;28;20051;-81
2022/04/05 13:13:38;;;;;;;17.75;4.80;;;10.30;99.90;;;;;;5017312;28;20044;-83
2022/04/05 13:16:04;;;;;;;15.13;5.25;;;10.20;99.90;;;;;;5000563;28;20080;-84
2022/04/05 13:18:44;;;;;;;22.13;5.33;;;10.20;99.90;;;;;;5003817;28;20123;-83
2022/04/05 13:21:16;;;;;;;15.60;5.32;;;10.20;99.90;;;;;;4999558;28;20049;-82